sensor_id;sensor_type;location;lat;lon;timestamp;P1;durP1;ratioP1;P2;durP2;ratioP2
21152;SDS011;10734;44.792;20.482;2022-08-19T00:00:03;8.00;;;3.80;;
21152;SDS011;10734;44.792;20.482;2022-08-19T00:04:59;5.38;;;3.78;;
21152;SDS011;10734;44.792;20.482;2022-08-19T00:07:26;5.75;;;3.33;;
21152;SDS011;10734;44.792;20.482;2022-08-19T00:09:53;11.80;;;4.10;;
21152;SDS011;10734;44.792;20.482;2022-08-19T00:12:22;7.95;;;4.18;;
21152;SDS011;10734;44.792;20.482;2022-08-19T00:14:48;6.63;;;4.25;;
21152;SDS011;10734;44.792;20.482;2022-08-19T00:17:15;9.18;;;4.70;;
21152;SDS011;10734;44.792;20.482;2022-08-19T00:19:42;6.60;;;4.20;;
21152;SDS011;10734;44.792;20.482;2022-08-19T00:22:08;10.75;;;4.38;;
21152;SDS011;10734;44.792;20.482;2022-08-19T00:24:36;6.22;;;4.25;;
21152;SDS011;10734;44.792;20.482;2022-08-19T00:27:04;5.75;;;4.22;;
21152;SDS011;10734;44.792;20.482;2022-08-19T00:29:51;3.90;;;3.50;;
21152;SDS011;10734;44.792;20.482;2022-08-19T00:32:18;8.50;;;4.00;;
21152;SDS011;10734;44.792;20.482;2022-08-19T00:34:45;5.45;;;3.60;;
21152;SDS011;10734;44.792;20.482;2022-08-19T00:37:12;6.22;;;3.30;;
21152;SDS011;10734;44.792;20.482;2022-08-19T00:39:39;5.80;;;3.70;;
21152;SDS011;10734;44.792;20.482;2022-08-19T00:42:05;5.43;;;3.67;;
21152;SDS011;10734;44.792;20.482;2022-08-19T00:44:32;5.10;;;3.92;;
21152;SDS011;10734;44.792;20.482;2022-08-19T00:46:59;5.20;;;3.78;;
21152;SDS011;10734;44.792;20.482;2022-08-19T00:49:43;5.57;;;3.83;;
21152;SDS011;10734;44.792;20.482;2022-08-19T00:52:22;6.05;;;3.58;;
21152;SDS011;10734;44.792;20.482;2022-08-19T00:54:55;4.20;;;3.03;;
21152;SDS011;10734;44.792;20.482;2022-08-19T00:57:28;5.68;;;3.38;;
21152;SDS011;10734;44.792;20.482;2022-08-19T00:59:58;5.07;;;3.30;;
21152;SDS011;10734;44.792;20.482;2022-08-19T01:02:29;4.18;;;3.28;;
21152;SDS011;10734;44.792;20.482;2022-08-19T01:04:57;6.25;;;3.35;;
21152;SDS011;10734;44.792;20.482;2022-08-19T01:07:26;4.65;;;3.10;;
21152;SDS011;10734;44.792;20.482;2022-08-19T01:10:00;5.80;;;3.35;;
21152;SDS011;10734;44.792;20.482;2022-08-19T01:12:28;3.97;;;3.10;;
21152;SDS011;10734;44.792;20.482;2022-08-19T01:14:54;5.22;;;3.42;;
21152;SDS011;10734;44.792;20.482;2022-08-19T01:17:24;6.00;;;3.97;;
21152;SDS011;10734;44.792;20.482;2022-08-19T01:19:50;3.97;;;3.35;;
21152;SDS011;10734;44.792;20.482;2022-08-19T01:24:55;5.50;;;3.60;;
21152;SDS011;10734;44.792;20.482;2022-08-19T01:27:24;5.63;;;3.70;;
21152;SDS011;10734;44.792;20.482;2022-08-19T01:29:51;6.57;;;4.03;;
21152;SDS011;10734;44.792;20.482;2022-08-19T01:32:17;7.60;;;4.70;;
21152;SDS011;10734;44.792;20.482;2022-08-19T01:35:01;6.25;;;4.38;;
21152;SDS011;10734;44.792;20.482;2022-08-19T01:37:41;11.93;;;4.95;;
21152;SDS011;10734;44.792;20.482;2022-08-19T01:40:20;9.95;;;4.78;;
21152;SDS011;10734;44.792;20.482;2022-08-19T01:42:49;6.07;;;4.55;;
21152;SDS011;10734;44.792;20.482;2022-08-19T01:45:18;7.13;;;4.28;;
21152;SDS011;10734;44.792;20.482;2022-08-19T01:47:47;7.10;;;4.32;;
21152;SDS011;10734;44.792;20.482;2022-08-19T01:50:26;6.55;;;3.83;;
21152;SDS011;10734;44.792;20.482;2022-08-19T01:52:53;7.53;;;3.58;;
21152;SDS011;10734;44.792;20.482;2022-08-19T01:55:32;8.30;;;3.70;;
21152;SDS011;10734;44.792;20.482;2022-08-19T01:58:00;6.93;;;3.28;;
21152;SDS011;10734;44.792;20.482;2022-08-19T02:00:31;5.68;;;3.92;;
21152;SDS011;10734;44.792;20.482;2022-08-19T02:02:58;7.55;;;3.30;;
21152;SDS011;10734;44.792;20.482;2022-08-19T02:05:27;7.70;;;3.28;;
21152;SDS011;10734;44.792;20.482;2022-08-19T02:07:56;4.18;;;3.30;;
21152;SDS011;10734;44.792;20.482;2022-08-19T02:10:23;7.55;;;3.58;;
21152;SDS011;10734;44.792;20.482;2022-08-19T02:12:50;4.65;;;3.30;;
21152;SDS011;10734;44.792;20.482;2022-08-19T02:15:18;7.32;;;3.50;;
21152;SDS011;10734;44.792;20.482;2022-08-19T02:17:46;8.57;;;3.60;;
21152;SDS011;10734;44.792;20.482;2022-08-19T02:20:13;4.93;;;3.25;;
21152;SDS011;10734;44.792;20.482;2022-08-19T02:22:40;4.25;;;3.33;;
21152;SDS011;10734;44.792;20.482;2022-08-19T02:25:12;3.92;;;3.25;;
21152;SDS011;10734;44.792;20.482;2022-08-19T02:27:40;4.82;;;3.30;;
21152;SDS011;10734;44.792;20.482;2022-08-19T02:30:13;5.40;;;3.33;;
21152;SDS011;10734;44.792;20.482;2022-08-19T02:32:42;8.95;;;3.17;;
21152;SDS011;10734;44.792;20.482;2022-08-19T02:35:19;6.50;;;3.67;;
21152;SDS011;10734;44.792;20.482;2022-08-19T02:37:46;6.35;;;3.50;;
21152;SDS011;10734;44.792;20.482;2022-08-19T02:40:32;6.13;;;3.47;;
21152;SDS011;10734;44.792;20.482;2022-08-19T02:43:04;8.25;;;3.83;;
21152;SDS011;10734;44.792;20.482;2022-08-19T02:45:36;4.65;;;3.10;;
21152;SDS011;10734;44.792;20.482;2022-08-19T02:48:06;4.85;;;3.42;;
21152;SDS011;10734;44.792;20.482;2022-08-19T02:50:47;6.35;;;3.33;;
21152;SDS011;10734;44.792;20.482;2022-08-19T02:53:19;9.25;;;3.20;;
21152;SDS011;10734;44.792;20.482;2022-08-19T02:55:46;4.97;;;3.38;;
21152;SDS011;10734;44.792;20.482;2022-08-19T02:58:13;5.07;;;3.35;;
21152;SDS011;10734;44.792;20.482;2022-08-19T03:00:42;5.10;;;3.40;;
21152;SDS011;10734;44.792;20.482;2022-08-19T03:03:15;4.35;;;2.85;;
21152;SDS011;10734;44.792;20.482;2022-08-19T03:05:43;4.57;;;2.90;;
21152;SDS011;10734;44.792;20.482;2022-08-19T03:08:22;7.13;;;2.80;;
21152;SDS011;10734;44.792;20.482;2022-08-19T03:10:50;4.63;;;3.20;;
21152;SDS011;10734;44.792;20.482;2022-08-19T03:13:18;5.50;;;2.75;;
21152;SDS011;10734;44.792;20.482;2022-08-19T03:15:45;5.07;;;2.80;;
21152;SDS011;10734;44.792;20.482;2022-08-19T03:18:14;5.40;;;3.30;;
21152;SDS011;10734;44.792;20.482;2022-08-19T03:20:51;7.10;;;3.28;;
21152;SDS011;10734;44.792;20.482;2022-08-19T03:23:22;5.43;;;3.00;;
21152;SDS011;10734;44.792;20.482;2022-08-19T03:25:50;7.07;;;3.22;;
21152;SDS011;10734;44.792;20.482;2022-08-19T03:28:38;6.68;;;2.95;;
21152;SDS011;10734;44.792;20.482;2022-08-19T03:31:06;7.00;;;3.33;;
21152;SDS011;10734;44.792;20.482;2022-08-19T03:33:56;5.63;;;3.10;;
21152;SDS011;10734;44.792;20.482;2022-08-19T03:36:24;4.85;;;2.83;;
21152;SDS011;10734;44.792;20.482;2022-08-19T03:38:56;5.65;;;3.03;;
21152;SDS011;10734;44.792;20.482;2022-08-19T03:41:29;6.65;;;3.47;;
21152;SDS011;10734;44.792;20.482;2022-08-19T03:44:09;3.67;;;2.75;;
21152;SDS011;10734;44.792;20.482;2022-08-19T03:46:42;8.82;;;3.40;;
21152;SDS011;10734;44.792;20.482;2022-08-19T03:49:10;5.60;;;3.00;;
21152;SDS011;10734;44.792;20.482;2022-08-19T03:51:39;7.40;;;3.63;;
21152;SDS011;10734;44.792;20.482;2022-08-19T03:54:10;7.65;;;3.15;;
21152;SDS011;10734;44.792;20.482;2022-08-19T03:56:40;4.65;;;3.83;;
21152;SDS011;10734;44.792;20.482;2022-08-19T03:59:13;6.30;;;3.67;;
21152;SDS011;10734;44.792;20.482;2022-08-19T04:01:42;4.35;;;3.22;;
21152;SDS011;10734;44.792;20.482;2022-08-19T04:04:09;7.18;;;3.40;;
21152;SDS011;10734;44.792;20.482;2022-08-19T04:06:37;7.20;;;3.78;;
21152;SDS011;10734;44.792;20.482;2022-08-19T04:09:06;6.90;;;3.17;;
21152;SDS011;10734;44.792;20.482;2022-08-19T04:11:37;4.55;;;3.35;;
21152;SDS011;10734;44.792;20.482;2022-08-19T04:14:11;5.43;;;3.22;;
21152;SDS011;10734;44.792;20.482;2022-08-19T04:16:45;5.15;;;3.50;;
21152;SDS011;10734;44.792;20.482;2022-08-19T04:19:15;5.77;;;3.33;;
21152;SDS011;10734;44.792;20.482;2022-08-19T04:21:44;5.47;;;3.42;;
21152;SDS011;10734;44.792;20.482;2022-08-19T04:24:12;5.50;;;3.30;;
21152;SDS011;10734;44.792;20.482;2022-08-19T04:26:39;8.00;;;3.47;;
21152;SDS011;10734;44.792;20.482;2022-08-19T04:29:11;5.45;;;3.45;;
21152;SDS011;10734;44.792;20.482;2022-08-19T04:31:43;9.90;;;3.40;;
21152;SDS011;10734;44.792;20.482;2022-08-19T04:34:12;7.30;;;3.30;;
21152;SDS011;10734;44.792;20.482;2022-08-19T04:36:41;6.88;;;3.40;;
21152;SDS011;10734;44.792;20.482;2022-08-19T04:39:13;8.85;;;3.42;;
21152;SDS011;10734;44.792;20.482;2022-08-19T04:41:43;9.65;;;3.70;;
21152;SDS011;10734;44.792;20.482;2022-08-19T04:44:30;5.20;;;3.28;;
21152;SDS011;10734;44.792;20.482;2022-08-19T04:47:01;9.73;;;3.75;;
21152;SDS011;10734;44.792;20.482;2022-08-19T04:49:36;8.13;;;3.67;;
21152;SDS011;10734;44.792;20.482;2022-08-19T04:52:03;7.65;;;4.15;;
21152;SDS011;10734;44.792;20.482;2022-08-19T04:54:30;8.95;;;3.75;;
21152;SDS011;10734;44.792;20.482;2022-08-19T04:57:04;6.03;;;3.10;;
21152;SDS011;10734;44.792;20.482;2022-08-19T04:59:34;4.82;;;3.85;;
21152;SDS011;10734;44.792;20.482;2022-08-19T05:02:01;5.65;;;3.45;;
21152;SDS011;10734;44.792;20.482;2022-08-19T05:04:28;6.78;;;3.45;;
21152;SDS011;10734;44.792;20.482;2022-08-19T05:06:57;8.52;;;3.78;;
21152;SDS011;10734;44.792;20.482;2022-08-19T05:09:26;11.65;;;4.13;;
21152;SDS011;10734;44.792;20.482;2022-08-19T05:12:14;6.40;;;3.53;;
21152;SDS011;10734;44.792;20.482;2022-08-19T05:14:42;10.73;;;3.88;;
21152;SDS011;10734;44.792;20.482;2022-08-19T05:17:09;9.32;;;3.70;;
21152;SDS011;10734;44.792;20.482;2022-08-19T05:19:54;11.02;;;3.80;;
21152;SDS011;10734;44.792;20.482;2022-08-19T05:22:41;5.93;;;3.38;;
21152;SDS011;10734;44.792;20.482;2022-08-19T05:25:12;5.43;;;3.40;;
21152;SDS011;10734;44.792;20.482;2022-08-19T05:27:42;4.72;;;3.65;;
21152;SDS011;10734;44.792;20.482;2022-08-19T05:30:11;4.43;;;3.60;;
21152;SDS011;10734;44.792;20.482;2022-08-19T05:32:39;9.43;;;4.32;;
21152;SDS011;10734;44.792;20.482;2022-08-19T05:35:06;6.70;;;3.53;;
21152;SDS011;10734;44.792;20.482;2022-08-19T05:37:33;7.85;;;4.05;;
21152;SDS011;10734;44.792;20.482;2022-08-19T05:40:00;11.23;;;4.35;;
21152;SDS011;10734;44.792;20.482;2022-08-19T05:42:27;10.32;;;4.07;;
21152;SDS011;10734;44.792;20.482;2022-08-19T05:44:54;7.03;;;4.10;;
21152;SDS011;10734;44.792;20.482;2022-08-19T05:47:22;7.20;;;3.90;;
21152;SDS011;10734;44.792;20.482;2022-08-19T05:49:49;9.43;;;4.35;;
21152;SDS011;10734;44.792;20.482;2022-08-19T05:52:17;10.80;;;4.75;;
21152;SDS011;10734;44.792;20.482;2022-08-19T05:54:51;8.85;;;3.83;;
21152;SDS011;10734;44.792;20.482;2022-08-19T05:57:21;6.80;;;4.20;;
21152;SDS011;10734;44.792;20.482;2022-08-19T05:59:48;10.10;;;4.43;;
21152;SDS011;10734;44.792;20.482;2022-08-19T06:02:27;7.78;;;4.60;;
21152;SDS011;10734;44.792;20.482;2022-08-19T06:04:57;6.25;;;4.07;;
21152;SDS011;10734;44.792;20.482;2022-08-19T06:07:24;8.82;;;4.35;;
21152;SDS011;10734;44.792;20.482;2022-08-19T06:09:51;11.38;;;4.18;;
21152;SDS011;10734;44.792;20.482;2022-08-19T06:12:29;8.75;;;4.13;;
21152;SDS011;10734;44.792;20.482;2022-08-19T06:15:00;7.53;;;4.20;;
21152;SDS011;10734;44.792;20.482;2022-08-19T06:17:29;6.68;;;4.57;;
21152;SDS011;10734;44.792;20.482;2022-08-19T06:19:57;8.73;;;4.43;;
21152;SDS011;10734;44.792;20.482;2022-08-19T06:22:25;10.00;;;4.72;;
21152;SDS011;10734;44.792;20.482;2022-08-19T06:24:53;9.02;;;4.32;;
21152;SDS011;10734;44.792;20.482;2022-08-19T06:27:20;9.70;;;4.75;;
21152;SDS011;10734;44.792;20.482;2022-08-19T06:29:48;6.28;;;3.90;;
21152;SDS011;10734;44.792;20.482;2022-08-19T06:32:16;5.85;;;4.22;;
21152;SDS011;10734;44.792;20.482;2022-08-19T06:34:45;7.97;;;4.18;;
21152;SDS011;10734;44.792;20.482;2022-08-19T06:37:12;10.00;;;4.68;;
21152;SDS011;10734;44.792;20.482;2022-08-19T06:39:43;6.45;;;4.78;;
21152;SDS011;10734;44.792;20.482;2022-08-19T06:44:44;8.07;;;4.43;;
21152;SDS011;10734;44.792;20.482;2022-08-19T06:47:19;8.27;;;4.60;;
21152;SDS011;10734;44.792;20.482;2022-08-19T06:49:58;9.63;;;4.22;;
21152;SDS011;10734;44.792;20.482;2022-08-19T06:52:32;6.53;;;3.97;;
21152;SDS011;10734;44.792;20.482;2022-08-19T06:55:04;10.95;;;4.63;;
21152;SDS011;10734;44.792;20.482;2022-08-19T06:57:33;6.93;;;4.38;;
21152;SDS011;10734;44.792;20.482;2022-08-19T07:00:03;9.95;;;5.07;;
21152;SDS011;10734;44.792;20.482;2022-08-19T07:02:40;6.18;;;4.47;;
21152;SDS011;10734;44.792;20.482;2022-08-19T07:05:22;11.43;;;4.70;;
21152;SDS011;10734;44.792;20.482;2022-08-19T07:07:50;10.10;;;5.15;;
21152;SDS011;10734;44.792;20.482;2022-08-19T07:10:18;9.50;;;5.20;;
21152;SDS011;10734;44.792;20.482;2022-08-19T07:12:46;8.35;;;4.78;;
21152;SDS011;10734;44.792;20.482;2022-08-19T07:15:15;9.07;;;5.03;;
21152;SDS011;10734;44.792;20.482;2022-08-19T07:17:44;18.83;;;5.63;;
21152;SDS011;10734;44.792;20.482;2022-08-19T07:20:15;9.63;;;4.67;;
21152;SDS011;10734;44.792;20.482;2022-08-19T07:22:44;13.30;;;5.38;;
21152;SDS011;10734;44.792;20.482;2022-08-19T07:25:11;9.38;;;4.60;;
21152;SDS011;10734;44.792;20.482;2022-08-19T07:27:44;14.27;;;5.60;;
21152;SDS011;10734;44.792;20.482;2022-08-19T07:30:13;11.98;;;5.55;;
21152;SDS011;10734;44.792;20.482;2022-08-19T07:32:40;9.10;;;5.53;;
21152;SDS011;10734;44.792;20.482;2022-08-19T07:35:08;13.77;;;5.78;;
21152;SDS011;10734;44.792;20.482;2022-08-19T07:37:36;13.90;;;6.40;;
21152;SDS011;10734;44.792;20.482;2022-08-19T07:40:05;7.38;;;5.78;;
21152;SDS011;10734;44.792;20.482;2022-08-19T07:42:34;16.05;;;5.95;;
21152;SDS011;10734;44.792;20.482;2022-08-19T07:45:03;15.95;;;5.30;;
21152;SDS011;10734;44.792;20.482;2022-08-19T07:47:30;13.82;;;5.43;;
21152;SDS011;10734;44.792;20.482;2022-08-19T07:50:19;9.18;;;4.53;;
21152;SDS011;10734;44.792;20.482;2022-08-19T07:52:48;7.25;;;4.80;;
21152;SDS011;10734;44.792;20.482;2022-08-19T07:55:18;8.65;;;4.78;;
21152;SDS011;10734;44.792;20.482;2022-08-19T07:58:07;9.35;;;4.63;;
21152;SDS011;10734;44.792;20.482;2022-08-19T08:00:35;7.20;;;4.22;;
21152;SDS011;10734;44.792;20.482;2022-08-19T08:03:02;8.82;;;4.45;;
21152;SDS011;10734;44.792;20.482;2022-08-19T08:05:29;10.50;;;5.05;;
21152;SDS011;10734;44.792;20.482;2022-08-19T08:08:14;4.88;;;4.00;;
21152;SDS011;10734;44.792;20.482;2022-08-19T08:10:59;11.75;;;4.70;;
21152;SDS011;10734;44.792;20.482;2022-08-19T08:13:26;11.98;;;4.63;;
21152;SDS011;10734;44.792;20.482;2022-08-19T08:15:54;16.45;;;4.53;;
21152;SDS011;10734;44.792;20.482;2022-08-19T08:18:22;10.93;;;4.93;;
21152;SDS011;10734;44.792;20.482;2022-08-19T08:20:53;11.25;;;4.15;;
21152;SDS011;10734;44.792;20.482;2022-08-19T08:23:21;5.97;;;4.53;;
21152;SDS011;10734;44.792;20.482;2022-08-19T08:25:57;15.45;;;4.65;;
21152;SDS011;10734;44.792;20.482;2022-08-19T08:28:25;10.95;;;4.40;;
21152;SDS011;10734;44.792;20.482;2022-08-19T08:30:55;6.85;;;4.38;;
21152;SDS011;10734;44.792;20.482;2022-08-19T08:33:23;12.55;;;4.80;;
21152;SDS011;10734;44.792;20.482;2022-08-19T08:35:58;5.90;;;4.18;;
21152;SDS011;10734;44.792;20.482;2022-08-19T08:38:25;9.18;;;4.63;;
21152;SDS011;10734;44.792;20.482;2022-08-19T08:40:53;9.38;;;4.80;;
21152;SDS011;10734;44.792;20.482;2022-08-19T08:43:34;9.63;;;3.80;;
21152;SDS011;10734;44.792;20.482;2022-08-19T08:46:08;12.02;;;3.72;;
21152;SDS011;10734;44.792;20.482;2022-08-19T08:48:58;7.93;;;3.60;;
21152;SDS011;10734;44.792;20.482;2022-08-19T08:51:35;10.20;;;4.47;;
21152;SDS011;10734;44.792;20.482;2022-08-19T08:54:13;6.55;;;3.67;;
21152;SDS011;10734;44.792;20.482;2022-08-19T08:56:44;11.57;;;3.92;;
21152;SDS011;10734;44.792;20.482;2022-08-19T08:59:26;6.30;;;3.90;;
21152;SDS011;10734;44.792;20.482;2022-08-19T09:01:58;7.80;;;4.07;;
21152;SDS011;10734;44.792;20.482;2022-08-19T09:04:26;5.82;;;4.05;;
21152;SDS011;10734;44.792;20.482;2022-08-19T09:12:58;6.80;;;4.22;;
21152;SDS011;10734;44.792;20.482;2022-08-19T09:15:36;7.57;;;3.92;;
21152;SDS011;10734;44.792;20.482;2022-08-19T09:18:08;4.90;;;3.30;;
21152;SDS011;10734;44.792;20.482;2022-08-19T09:20:44;10.32;;;4.28;;
21152;SDS011;10734;44.792;20.482;2022-08-19T09:23:13;6.90;;;3.60;;
21152;SDS011;10734;44.792;20.482;2022-08-19T09:25:39;8.20;;;3.65;;
21152;SDS011;10734;44.792;20.482;2022-08-19T09:28:06;9.65;;;4.30;;
21152;SDS011;10734;44.792;20.482;2022-08-19T09:30:47;7.60;;;3.83;;
21152;SDS011;10734;44.792;20.482;2022-08-19T09:33:18;7.30;;;3.77;;
21152;SDS011;10734;44.792;20.482;2022-08-19T09:35:46;7.32;;;3.30;;
21152;SDS011;10734;44.792;20.482;2022-08-19T09:38:18;4.13;;;3.20;;
21152;SDS011;10734;44.792;20.482;2022-08-19T09:40:44;5.82;;;3.53;;
21152;SDS011;10734;44.792;20.482;2022-08-19T09:43:11;6.78;;;4.40;;
21152;SDS011;10734;44.792;20.482;2022-08-19T09:45:39;8.85;;;4.10;;
21152;SDS011;10734;44.792;20.482;2022-08-19T09:48:06;10.38;;;4.00;;
21152;SDS011;10734;44.792;20.482;2022-08-19T09:50:36;10.43;;;3.88;;
21152;SDS011;10734;44.792;20.482;2022-08-19T09:53:17;9.52;;;3.78;;
21152;SDS011;10734;44.792;20.482;2022-08-19T09:55:45;8.00;;;4.22;;
21152;SDS011;10734;44.792;20.482;2022-08-19T09:58:12;9.38;;;3.45;;
21152;SDS011;10734;44.792;20.482;2022-08-19T10:00:38;8.02;;;3.80;;
21152;SDS011;10734;44.792;20.482;2022-08-19T10:03:05;6.22;;;3.63;;
21152;SDS011;10734;44.792;20.482;2022-08-19T10:05:33;9.88;;;3.70;;
21152;SDS011;10734;44.792;20.482;2022-08-19T10:08:27;4.28;;;3.50;;
21152;SDS011;10734;44.792;20.482;2022-08-19T10:10:56;6.05;;;3.22;;
21152;SDS011;10734;44.792;20.482;2022-08-19T10:13:25;6.38;;;3.60;;
21152;SDS011;10734;44.792;20.482;2022-08-19T10:15:53;10.73;;;4.20;;
21152;SDS011;10734;44.792;20.482;2022-08-19T10:18:23;10.60;;;3.40;;
21152;SDS011;10734;44.792;20.482;2022-08-19T10:20:51;7.78;;;3.67;;
21152;SDS011;10734;44.792;20.482;2022-08-19T10:23:20;9.40;;;3.63;;
21152;SDS011;10734;44.792;20.482;2022-08-19T10:25:48;6.10;;;3.50;;
21152;SDS011;10734;44.792;20.482;2022-08-19T10:28:15;5.10;;;3.13;;
21152;SDS011;10734;44.792;20.482;2022-08-19T10:30:45;10.43;;;4.07;;
21152;SDS011;10734;44.792;20.482;2022-08-19T10:33:13;10.82;;;3.50;;
21152;SDS011;10734;44.792;20.482;2022-08-19T10:36:11;5.68;;;3.40;;
21152;SDS011;10734;44.792;20.482;2022-08-19T10:38:44;6.30;;;3.05;;
21152;SDS011;10734;44.792;20.482;2022-08-19T10:41:20;8.50;;;3.95;;
21152;SDS011;10734;44.792;20.482;2022-08-19T10:43:51;7.63;;;3.60;;
21152;SDS011;10734;44.792;20.482;2022-08-19T10:46:21;7.70;;;3.42;;
21152;SDS011;10734;44.792;20.482;2022-08-19T10:48:50;8.07;;;3.67;;
21152;SDS011;10734;44.792;20.482;2022-08-19T10:51:18;6.68;;;3.95;;
21152;SDS011;10734;44.792;20.482;2022-08-19T10:54:14;10.55;;;3.85;;
21152;SDS011;10734;44.792;20.482;2022-08-19T10:56:41;6.40;;;3.47;;
21152;SDS011;10734;44.792;20.482;2022-08-19T10:59:24;5.20;;;3.38;;
21152;SDS011;10734;44.792;20.482;2022-08-19T11:02:01;9.35;;;3.63;;
21152;SDS011;10734;44.792;20.482;2022-08-19T11:04:30;5.07;;;3.55;;
21152;SDS011;10734;44.792;20.482;2022-08-19T11:06:58;8.38;;;3.35;;
21152;SDS011;10734;44.792;20.482;2022-08-19T11:09:25;9.27;;;4.20;;
21152;SDS011;10734;44.792;20.482;2022-08-19T11:11:59;13.57;;;3.53;;
21152;SDS011;10734;44.792;20.482;2022-08-19T11:14:30;11.93;;;3.30;;
21152;SDS011;10734;44.792;20.482;2022-08-19T11:16:59;7.18;;;3.45;;
21152;SDS011;10734;44.792;20.482;2022-08-19T11:19:26;10.95;;;3.67;;
21152;SDS011;10734;44.792;20.482;2022-08-19T11:21:53;6.32;;;3.08;;
21152;SDS011;10734;44.792;20.482;2022-08-19T11:24:24;6.03;;;3.22;;
21152;SDS011;10734;44.792;20.482;2022-08-19T11:26:52;10.10;;;3.70;;
21152;SDS011;10734;44.792;20.482;2022-08-19T11:29:25;9.90;;;3.28;;
21152;SDS011;10734;44.792;20.482;2022-08-19T11:31:53;10.52;;;3.30;;
21152;SDS011;10734;44.792;20.482;2022-08-19T11:34:22;7.22;;;3.15;;
21152;SDS011;10734;44.792;20.482;2022-08-19T11:36:53;7.72;;;3.08;;
21152;SDS011;10734;44.792;20.482;2022-08-19T11:39:24;7.90;;;3.38;;
21152;SDS011;10734;44.792;20.482;2022-08-19T11:41:52;8.32;;;3.00;;
21152;SDS011;10734;44.792;20.482;2022-08-19T11:44:19;6.28;;;3.20;;
21152;SDS011;10734;44.792;20.482;2022-08-19T11:46:46;10.38;;;3.40;;
21152;SDS011;10734;44.792;20.482;2022-08-19T11:49:14;9.95;;;3.20;;
21152;SDS011;10734;44.792;20.482;2022-08-19T11:51:42;5.10;;;3.15;;
21152;SDS011;10734;44.792;20.482;2022-08-19T11:54:13;8.63;;;3.05;;
21152;SDS011;10734;44.792;20.482;2022-08-19T11:56:42;7.88;;;3.10;;
21152;SDS011;10734;44.792;20.482;2022-08-19T11:59:09;8.00;;;3.45;;
21152;SDS011;10734;44.792;20.482;2022-08-19T12:01:40;8.70;;;3.80;;
21152;SDS011;10734;44.792;20.482;2022-08-19T12:04:09;9.38;;;3.55;;
21152;SDS011;10734;44.792;20.482;2022-08-19T12:06:37;13.38;;;3.97;;
21152;SDS011;10734;44.792;20.482;2022-08-19T12:09:07;11.07;;;3.85;;
21152;SDS011;10734;44.792;20.482;2022-08-19T12:11:36;8.05;;;3.28;;
21152;SDS011;10734;44.792;20.482;2022-08-19T12:14:04;14.73;;;4.18;;
21152;SDS011;10734;44.792;20.482;2022-08-19T12:16:31;12.35;;;3.42;;
21152;SDS011;10734;44.792;20.482;2022-08-19T12:18:59;9.18;;;3.97;;
21152;SDS011;10734;44.792;20.482;2022-08-19T12:21:30;13.05;;;2.92;;
21152;SDS011;10734;44.792;20.482;2022-08-19T12:24:00;11.77;;;3.55;;
21152;SDS011;10734;44.792;20.482;2022-08-19T12:26:28;10.32;;;3.70;;
21152;SDS011;10734;44.792;20.482;2022-08-19T12:28:58;9.40;;;3.72;;
21152;SDS011;10734;44.792;20.482;2022-08-19T12:31:28;13.40;;;3.88;;
21152;SDS011;10734;44.792;20.482;2022-08-19T12:36:23;10.18;;;3.53;;
21152;SDS011;10734;44.792;20.482;2022-08-19T12:38:51;4.95;;;2.80;;
21152;SDS011;10734;44.792;20.482;2022-08-19T12:41:19;10.57;;;3.75;;
21152;SDS011;10734;44.792;20.482;2022-08-19T12:43:48;8.37;;;3.53;;
21152;SDS011;10734;44.792;20.482;2022-08-19T12:46:17;8.85;;;3.58;;
21152;SDS011;10734;44.792;20.482;2022-08-19T12:51:19;6.95;;;3.20;;
21152;SDS011;10734;44.792;20.482;2022-08-19T12:53:46;10.30;;;3.65;;
21152;SDS011;10734;44.792;20.482;2022-08-19T12:56:15;13.85;;;3.30;;
21152;SDS011;10734;44.792;20.482;2022-08-19T12:58:48;10.45;;;3.50;;
21152;SDS011;10734;44.792;20.482;2022-08-19T13:01:16;10.73;;;3.45;;
21152;SDS011;10734;44.792;20.482;2022-08-19T13:03:48;10.70;;;2.95;;
21152;SDS011;10734;44.792;20.482;2022-08-19T13:06:18;7.35;;;3.40;;
21152;SDS011;10734;44.792;20.482;2022-08-19T13:08:45;9.98;;;3.67;;
21152;SDS011;10734;44.792;20.482;2022-08-19T13:11:14;13.50;;;3.22;;
21152;SDS011;10734;44.792;20.482;2022-08-19T13:13:44;5.65;;;2.88;;
21152;SDS011;10734;44.792;20.482;2022-08-19T13:16:13;11.47;;;4.03;;
21152;SDS011;10734;44.792;20.482;2022-08-19T13:18:41;9.75;;;2.85;;
21152;SDS011;10734;44.792;20.482;2022-08-19T13:21:10;7.38;;;3.25;;
21152;SDS011;10734;44.792;20.482;2022-08-19T13:23:40;11.18;;;3.75;;
21152;SDS011;10734;44.792;20.482;2022-08-19T13:26:08;8.48;;;3.25;;
21152;SDS011;10734;44.792;20.482;2022-08-19T13:28:36;8.50;;;3.17;;
21152;SDS011;10734;44.792;20.482;2022-08-19T13:31:22;7.20;;;3.50;;
21152;SDS011;10734;44.792;20.482;2022-08-19T13:34:10;10.18;;;3.35;;
21152;SDS011;10734;44.792;20.482;2022-08-19T13:36:37;6.43;;;2.90;;
21152;SDS011;10734;44.792;20.482;2022-08-19T13:39:05;11.40;;;3.53;;
21152;SDS011;10734;44.792;20.482;2022-08-19T13:41:49;9.43;;;3.35;;
21152;SDS011;10734;44.792;20.482;2022-08-19T13:44:17;5.20;;;3.42;;
21152;SDS011;10734;44.792;20.482;2022-08-19T13:46:45;12.05;;;3.42;;
21152;SDS011;10734;44.792;20.482;2022-08-19T13:49:19;8.70;;;3.40;;
21152;SDS011;10734;44.792;20.482;2022-08-19T13:51:46;9.52;;;3.47;;
21152;SDS011;10734;44.792;20.482;2022-08-19T13:54:28;8.43;;;3.50;;
21152;SDS011;10734;44.792;20.482;2022-08-19T13:56:55;14.20;;;3.45;;
21152;SDS011;10734;44.792;20.482;2022-08-19T13:59:21;12.20;;;3.70;;
21152;SDS011;10734;44.792;20.482;2022-08-19T14:01:48;12.27;;;3.47;;
21152;SDS011;10734;44.792;20.482;2022-08-19T14:04:16;9.23;;;3.72;;
21152;SDS011;10734;44.792;20.482;2022-08-19T14:06:42;6.15;;;3.38;;
21152;SDS011;10734;44.792;20.482;2022-08-19T14:09:09;14.77;;;3.50;;
21152;SDS011;10734;44.792;20.482;2022-08-19T14:11:38;10.90;;;3.83;;
21152;SDS011;10734;44.792;20.482;2022-08-19T14:14:04;8.25;;;3.38;;
21152;SDS011;10734;44.792;20.482;2022-08-19T14:16:31;6.57;;;3.10;;
21152;SDS011;10734;44.792;20.482;2022-08-19T14:18:58;9.45;;;3.25;;
21152;SDS011;10734;44.792;20.482;2022-08-19T14:21:25;10.45;;;3.72;;
21152;SDS011;10734;44.792;20.482;2022-08-19T14:23:52;9.65;;;3.13;;
21152;SDS011;10734;44.792;20.482;2022-08-19T14:26:20;8.27;;;3.72;;
21152;SDS011;10734;44.792;20.482;2022-08-19T14:28:48;11.55;;;3.50;;
21152;SDS011;10734;44.792;20.482;2022-08-19T14:31:16;13.25;;;3.92;;
21152;SDS011;10734;44.792;20.482;2022-08-19T14:33:46;7.70;;;3.37;;
21152;SDS011;10734;44.792;20.482;2022-08-19T14:36:13;10.07;;;4.05;;
21152;SDS011;10734;44.792;20.482;2022-08-19T14:38:40;13.88;;;3.40;;
21152;SDS011;10734;44.792;20.482;2022-08-19T14:41:18;12.68;;;3.35;;
21152;SDS011;10734;44.792;20.482;2022-08-19T14:43:47;15.23;;;3.78;;
21152;SDS011;10734;44.792;20.482;2022-08-19T14:46:17;9.55;;;3.20;;
21152;SDS011;10734;44.792;20.482;2022-08-19T14:48:46;12.57;;;3.50;;
21152;SDS011;10734;44.792;20.482;2022-08-19T14:51:17;11.95;;;3.55;;
21152;SDS011;10734;44.792;20.482;2022-08-19T14:53:45;11.75;;;3.88;;
21152;SDS011;10734;44.792;20.482;2022-08-19T14:56:16;12.60;;;3.88;;
21152;SDS011;10734;44.792;20.482;2022-08-19T14:58:44;9.93;;;3.95;;
21152;SDS011;10734;44.792;20.482;2022-08-19T15:01:11;10.27;;;3.47;;
21152;SDS011;10734;44.792;20.482;2022-08-19T15:03:39;10.50;;;3.70;;
21152;SDS011;10734;44.792;20.482;2022-08-19T15:06:09;11.88;;;3.50;;
21152;SDS011;10734;44.792;20.482;2022-08-19T15:08:39;7.38;;;3.10;;